Maywood, Indiana
Current Conditions -  °F | °C
As of 3:54 PM on Thursday 27 Nov 2014 (Local Time) from KIND Reporting Station
Overcast Overcast  
Wind Chill: 16°   Ceiling: 2000
Heat Index: 27°   Visibility: 10mi
Dew Point: 19°   Wind: 13mph
Humidity: 72%   Direction: 300°WNW
Pressure: 30.34"   Gusts: NA
Location:  39.7251°N, 86.264°W
Report Text: KIND 272054Z 30011KT 10SM BKN020 OVC025 M03/M07 A3034 RMK AO2 SLP284 T10281072 53009
Loading
Personal Weather Stations






























Interactive Weather Map New forecast layout! Learn more

10-Day Weather Forecast

Advertisements
Track Severe Weather on mobile